Detroit, Alabama
Current Conditions -  °F | °C
As of 5:15 PM on Friday 19 Dec 2014 (Local Time) from KM40 Reporting Station
Clear Clear  
Wind Chill: 43°   Ceiling: Unl
Heat Index: 46°   Visibility: 9mi
Dew Point: 32°   Wind: 7mph
Humidity: 57%   Direction: 20°NNE
Pressure: 30.18"   Gusts: NA
Location:  34.03°N, 88.17°W
Report Text: KM40 192315Z AUTO 02006KT 9SM CLR 08/00 A3018 RMK AO2
Loading
Personal Weather Stations






























Interactive Weather Map New forecast layout! Learn more

10-Day Weather Forecast

Advertisements
Track Severe Weather on mobile